sensor_id;sensor_type;location;lat;lon;timestamp;temperature;humidity
21928;DHT22;11128;51.096;17.190;2022-07-22T00:01:13;24.00;1.00
21928;DHT22;11128;51.096;17.190;2022-07-22T00:06:14;23.90;1.00
21928;DHT22;11128;51.096;17.190;2022-07-22T00:11:16;23.80;1.00
21928;DHT22;11128;51.096;17.190;2022-07-22T00:16:17;23.80;60.00
21928;DHT22;11128;51.096;17.190;2022-07-22T00:21:20;23.70;1.00
21928;DHT22;11128;51.096;17.190;2022-07-22T00:26:22;23.70;1.00
21928;DHT22;11128;51.096;17.190;2022-07-22T00:31:23;23.60;1.00
21928;DHT22;11128;51.096;17.190;2022-07-22T00:36:25;23.50;1.00
21928;DHT22;11128;51.096;17.190;2022-07-22T00:41:27;23.50;99.90
21928;DHT22;11128;51.096;17.190;2022-07-22T00:46:30;23.50;47.90
21928;DHT22;11128;51.096;17.190;2022-07-22T00:51:32;23.30;99.90
21928;DHT22;11128;51.096;17.190;2022-07-22T00:56:34;23.40;1.00
21928;DHT22;11128;51.096;17.190;2022-07-22T01:01:37;23.30;1.00
21928;DHT22;11128;51.096;17.190;2022-07-22T01:06:40;23.10;1.00
21928;DHT22;11128;51.096;17.190;2022-07-22T01:11:46;23.00;1.00
21928;DHT22;11128;51.096;17.190;2022-07-22T01:16:47;22.90;1.00
21928;DHT22;11128;51.096;17.190;2022-07-22T01:21:49;22.80;1.00
21928;DHT22;11128;51.096;17.190;2022-07-22T01:26:50;22.90;1.00
21928;DHT22;11128;51.096;17.190;2022-07-22T01:31:52;22.90;1.00
21928;DHT22;11128;51.096;17.190;2022-07-22T01:36:53;22.80;1.00
21928;DHT22;11128;51.096;17.190;2022-07-22T01:41:55;22.70;99.90
21928;DHT22;11128;51.096;17.190;2022-07-22T01:46:57;22.50;99.90
21928;DHT22;11128;51.096;17.190;2022-07-22T01:52:01;22.40;99.90
21928;DHT22;11128;51.096;17.190;2022-07-22T01:57:03;22.40;1.00
21928;DHT22;11128;51.096;17.190;2022-07-22T02:02:05;22.20;99.90
21928;DHT22;11128;51.096;17.190;2022-07-22T02:07:07;22.20;1.00
21928;DHT22;11128;51.096;17.190;2022-07-22T02:12:08;22.10;33.90
21928;DHT22;11128;51.096;17.190;2022-07-22T02:17:10;22.00;1.00
21928;DHT22;11128;51.096;17.190;2022-07-22T02:22:12;21.90;1.00
21928;DHT22;11128;51.096;17.190;2022-07-22T02:27:15;22.00;1.00
21928;DHT22;11128;51.096;17.190;2022-07-22T02:32:17;22.20;99.90
21928;DHT22;11128;51.096;17.190;2022-07-22T02:37:18;22.30;1.00
21928;DHT22;11128;51.096;17.190;2022-07-22T02:42:20;22.30;99.90
21928;DHT22;11128;51.096;17.190;2022-07-22T02:47:22;22.20;99.90
21928;DHT22;11128;51.096;17.190;2022-07-22T02:52:23;22.10;1.00
21928;DHT22;11128;51.096;17.190;2022-07-22T02:57:24;21.90;1.00
21928;DHT22;11128;51.096;17.190;2022-07-22T03:02:26;22.00;1.00
21928;DHT22;11128;51.096;17.190;2022-07-22T03:07:27;22.00;99.90
21928;DHT22;11128;51.096;17.190;2022-07-22T03:12:29;22.10;1.00
21928;DHT22;11128;51.096;17.190;2022-07-22T03:17:34;22.20;1.00
21928;DHT22;11128;51.096;17.190;2022-07-22T03:22:36;22.20;1.00
21928;DHT22;11128;51.096;17.190;2022-07-22T03:27:38;22.30;1.00
21928;DHT22;11128;51.096;17.190;2022-07-22T03:32:39;22.20;1.00
21928;DHT22;11128;51.096;17.190;2022-07-22T03:37:46;22.10;1.00
21928;DHT22;11128;51.096;17.190;2022-07-22T03:42:47;22.00;1.00
21928;DHT22;11128;51.096;17.190;2022-07-22T03:47:49;21.80;1.00
21928;DHT22;11128;51.096;17.190;2022-07-22T03:52:51;21.70;99.90
21928;DHT22;11128;51.096;17.190;2022-07-22T03:57:52;21.70;1.00
21928;DHT22;11128;51.096;17.190;2022-07-22T04:02:54;21.60;1.00
21928;DHT22;11128;51.096;17.190;2022-07-22T04:07:56;21.60;1.00
21928;DHT22;11128;51.096;17.190;2022-07-22T04:12:57;21.60;1.00
21928;DHT22;11128;51.096;17.190;2022-07-22T04:17:58;21.60;67.30
21928;DHT22;11128;51.096;17.190;2022-07-22T04:23:00;21.60;99.90
21928;DHT22;11128;51.096;17.190;2022-07-22T04:28:02;21.60;99.90
21928;DHT22;11128;51.096;17.190;2022-07-22T04:33:03;21.50;99.90
21928;DHT22;11128;51.096;17.190;2022-07-22T04:38:05;21.60;1.00
21928;DHT22;11128;51.096;17.190;2022-07-22T04:43:07;21.70;99.90
21928;DHT22;11128;51.096;17.190;2022-07-22T04:48:09;21.70;99.90
21928;DHT22;11128;51.096;17.190;2022-07-22T04:53:10;21.70;99.90
21928;DHT22;11128;51.096;17.190;2022-07-22T04:58:12;21.70;99.90
21928;DHT22;11128;51.096;17.190;2022-07-22T05:03:14;21.80;99.90
21928;DHT22;11128;51.096;17.190;2022-07-22T05:08:16;21.80;99.90
21928;DHT22;11128;51.096;17.190;2022-07-22T05:13:17;21.70;99.90
21928;DHT22;11128;51.096;17.190;2022-07-22T05:18:19;21.70;1.00
21928;DHT22;11128;51.096;17.190;2022-07-22T05:23:21;21.60;99.90
21928;DHT22;11128;51.096;17.190;2022-07-22T05:28:23;21.70;99.90
21928;DHT22;11128;51.096;17.190;2022-07-22T05:33:25;21.80;1.00
21928;DHT22;11128;51.096;17.190;2022-07-22T05:38:27;21.90;1.00
21928;DHT22;11128;51.096;17.190;2022-07-22T05:43:29;22.00;1.00
21928;DHT22;11128;51.096;17.190;2022-07-22T05:48:30;22.10;99.90
21928;DHT22;11128;51.096;17.190;2022-07-22T05:53:32;22.20;1.00
21928;DHT22;11128;51.096;17.190;2022-07-22T05:58:34;22.40;99.90
21928;DHT22;11128;51.096;17.190;2022-07-22T06:03:36;22.80;1.00
21928;DHT22;11128;51.096;17.190;2022-07-22T06:08:37;23.00;99.90
21928;DHT22;11128;51.096;17.190;2022-07-22T06:13:39;23.20;1.00
21928;DHT22;11128;51.096;17.190;2022-07-22T06:18:40;23.30;13.20
21928;DHT22;11128;51.096;17.190;2022-07-22T06:23:41;23.40;1.00
21928;DHT22;11128;51.096;17.190;2022-07-22T06:28:44;23.60;1.00
21928;DHT22;11128;51.096;17.190;2022-07-22T06:33:45;23.80;99.90
21928;DHT22;11128;51.096;17.190;2022-07-22T06:38:47;23.90;1.00
21928;DHT22;11128;51.096;17.190;2022-07-22T06:43:49;24.00;99.90
21928;DHT22;11128;51.096;17.190;2022-07-22T06:48:51;24.40;1.00
21928;DHT22;11128;51.096;17.190;2022-07-22T06:53:52;24.70;1.00
21928;DHT22;11128;51.096;17.190;2022-07-22T06:58:54;25.00;1.00
21928;DHT22;11128;51.096;17.190;2022-07-22T07:03:55;25.40;99.90
21928;DHT22;11128;51.096;17.190;2022-07-22T07:08:57;26.00;20.20
21928;DHT22;11128;51.096;17.190;2022-07-22T07:13:59;25.90;1.00
21928;DHT22;11128;51.096;17.190;2022-07-22T07:19:01;25.60;1.00
21928;DHT22;11128;51.096;17.190;2022-07-22T07:24:03;25.40;1.00
21928;DHT22;11128;51.096;17.190;2022-07-22T07:29:04;25.50;1.00
21928;DHT22;11128;51.096;17.190;2022-07-22T07:34:06;25.90;1.00
21928;DHT22;11128;51.096;17.190;2022-07-22T07:39:10;26.10;1.00
21928;DHT22;11128;51.096;17.190;2022-07-22T07:44:18;26.20;1.00
21928;DHT22;11128;51.096;17.190;2022-07-22T07:49:19;26.50;1.00
21928;DHT22;11128;51.096;17.190;2022-07-22T07:54:21;26.90;1.00
21928;DHT22;11128;51.096;17.190;2022-07-22T07:59:23;27.00;1.00
21928;DHT22;11128;51.096;17.190;2022-07-22T08:04:25;27.10;99.90
21928;DHT22;11128;51.096;17.190;2022-07-22T08:09:27;27.40;99.90
21928;DHT22;11128;51.096;17.190;2022-07-22T08:14:29;27.90;99.90
21928;DHT22;11128;51.096;17.190;2022-07-22T08:19:32;28.10;99.90
21928;DHT22;11128;51.096;17.190;2022-07-22T08:24:34;28.50;99.90
21928;DHT22;11128;51.096;17.190;2022-07-22T08:29:36;28.60;99.90
21928;DHT22;11128;51.096;17.190;2022-07-22T08:34:38;28.70;99.90
21928;DHT22;11128;51.096;17.190;2022-07-22T08:39:40;29.00;99.90
21928;DHT22;11128;51.096;17.190;2022-07-22T08:44:44;29.30;77.50
21928;DHT22;11128;51.096;17.190;2022-07-22T08:49:45;29.90;42.50
21928;DHT22;11128;51.096;17.190;2022-07-22T08:54:47;30.30;24.50
21928;DHT22;11128;51.096;17.190;2022-07-22T08:59:53;30.60;1.00
21928;DHT22;11128;51.096;17.190;2022-07-22T09:05:03;30.80;1.00
21928;DHT22;11128;51.096;17.190;2022-07-22T09:10:17;30.80;1.00
21928;DHT22;11128;51.096;17.190;2022-07-22T09:15:32;31.30;1.00
21928;DHT22;11128;51.096;17.190;2022-07-22T09:20:36;31.40;1.00
21928;DHT22;11128;51.096;17.190;2022-07-22T09:25:39;31.90;1.00
21928;DHT22;11128;51.096;17.190;2022-07-22T09:30:52;32.00;1.00
21928;DHT22;11128;51.096;17.190;2022-07-22T09:36:02;32.10;1.00
21928;DHT22;11128;51.096;17.190;2022-07-22T09:41:06;32.40;1.00
21928;DHT22;11128;51.096;17.190;2022-07-22T09:46:08;32.90;1.00
21928;DHT22;11128;51.096;17.190;2022-07-22T09:51:11;33.10;1.00
21928;DHT22;11128;51.096;17.190;2022-07-22T09:56:13;33.50;1.00
21928;DHT22;11128;51.096;17.190;2022-07-22T10:01:17;33.10;1.00
21928;DHT22;11128;51.096;17.190;2022-07-22T10:06:19;33.50;1.00
21928;DHT22;11128;51.096;17.190;2022-07-22T10:11:20;33.80;1.00
21928;DHT22;11128;51.096;17.190;2022-07-22T10:16:22;34.20;1.00
21928;DHT22;11128;51.096;17.190;2022-07-22T10:21:32;34.10;1.00
21928;DHT22;11128;51.096;17.190;2022-07-22T10:26:55;34.20;1.00
21928;DHT22;11128;51.096;17.190;2022-07-22T10:48:02;35.60;1.00
21928;DHT22;11128;51.096;17.190;2022-07-22T10:58:55;36.30;1.00
21928;DHT22;11128;51.096;17.190;2022-07-22T11:04:11;36.80;1.00
21928;DHT22;11128;51.096;17.190;2022-07-22T11:09:16;35.20;1.00
21928;DHT22;11128;51.096;17.190;2022-07-22T11:19:30;35.50;1.00
21928;DHT22;11128;51.096;17.190;2022-07-22T11:24:34;36.40;1.00
21928;DHT22;11128;51.096;17.190;2022-07-22T11:29:39;36.20;1.00
21928;DHT22;11128;51.096;17.190;2022-07-22T11:34:44;36.40;1.00
21928;DHT22;11128;51.096;17.190;2022-07-22T11:39:47;37.40;1.00
21928;DHT22;11128;51.096;17.190;2022-07-22T11:44:48;37.30;1.00
21928;DHT22;11128;51.096;17.190;2022-07-22T11:49:51;36.80;1.00
21928;DHT22;11128;51.096;17.190;2022-07-22T11:54:53;36.30;1.00
21928;DHT22;11128;51.096;17.190;2022-07-22T11:59:55;36.50;1.00
21928;DHT22;11128;51.096;17.190;2022-07-22T12:04:56;36.60;1.00
21928;DHT22;11128;51.096;17.190;2022-07-22T12:09:58;37.70;1.00
21928;DHT22;11128;51.096;17.190;2022-07-22T12:15:01;37.90;1.00
21928;DHT22;11128;51.096;17.190;2022-07-22T12:20:10;37.60;1.00
21928;DHT22;11128;51.096;17.190;2022-07-22T12:25:13;36.70;1.00
21928;DHT22;11128;51.096;17.190;2022-07-22T12:30:16;36.40;1.00
21928;DHT22;11128;51.096;17.190;2022-07-22T12:35:17;36.20;1.00
21928;DHT22;11128;51.096;17.190;2022-07-22T12:40:21;36.00;1.00
21928;DHT22;11128;51.096;17.190;2022-07-22T12:45:23;34.90;1.00
21928;DHT22;11128;51.096;17.190;2022-07-22T12:50:36;34.30;1.00
21928;DHT22;11128;51.096;17.190;2022-07-22T12:55:45;34.10;1.00
21928;DHT22;11128;51.096;17.190;2022-07-22T13:00:50;35.00;1.00
21928;DHT22;11128;51.096;17.190;2022-07-22T13:05:55;34.90;1.00
21928;DHT22;11128;51.096;17.190;2022-07-22T13:10:57;34.40;1.00
21928;DHT22;11128;51.096;17.190;2022-07-22T13:15:59;33.90;1.00
21928;DHT22;11128;51.096;17.190;2022-07-22T13:21:01;34.20;1.00
21928;DHT22;11128;51.096;17.190;2022-07-22T13:26:03;35.30;1.00
21928;DHT22;11128;51.096;17.190;2022-07-22T13:31:05;35.50;1.00
21928;DHT22;11128;51.096;17.190;2022-07-22T13:36:07;35.10;1.00
21928;DHT22;11128;51.096;17.190;2022-07-22T13:41:09;34.80;1.00
21928;DHT22;11128;51.096;17.190;2022-07-22T13:46:18;34.70;1.00
21928;DHT22;11128;51.096;17.190;2022-07-22T13:51:20;34.10;1.00
21928;DHT22;11128;51.096;17.190;2022-07-22T13:56:22;33.70;1.00
21928;DHT22;11128;51.096;17.190;2022-07-22T14:01:23;33.70;1.00
21928;DHT22;11128;51.096;17.190;2022-07-22T14:06:25;34.60;1.00
21928;DHT22;11128;51.096;17.190;2022-07-22T14:11:27;34.60;1.00
21928;DHT22;11128;51.096;17.190;2022-07-22T14:16:28;34.00;1.00
21928;DHT22;11128;51.096;17.190;2022-07-22T14:21:37;33.90;1.00
21928;DHT22;11128;51.096;17.190;2022-07-22T14:26:40;33.70;1.00
21928;DHT22;11128;51.096;17.190;2022-07-22T14:31:44;33.50;1.00
21928;DHT22;11128;51.096;17.190;2022-07-22T14:36:45;33.40;1.00
21928;DHT22;11128;51.096;17.190;2022-07-22T14:41:47;33.60;1.00
21928;DHT22;11128;51.096;17.190;2022-07-22T14:46:49;34.00;1.00
21928;DHT22;11128;51.096;17.190;2022-07-22T14:51:50;34.00;1.00
21928;DHT22;11128;51.096;17.190;2022-07-22T14:56:52;34.20;1.00
21928;DHT22;11128;51.096;17.190;2022-07-22T15:01:55;34.50;1.00
21928;DHT22;11128;51.096;17.190;2022-07-22T15:06:56;34.80;1.00
21928;DHT22;11128;51.096;17.190;2022-07-22T15:11:58;34.70;1.00
21928;DHT22;11128;51.096;17.190;2022-07-22T15:17:00;34.70;1.00
21928;DHT22;11128;51.096;17.190;2022-07-22T15:22:01;34.40;1.00
21928;DHT22;11128;51.096;17.190;2022-07-22T15:27:04;34.00;1.00
21928;DHT22;11128;51.096;17.190;2022-07-22T15:32:06;34.10;1.00
21928;DHT22;11128;51.096;17.190;2022-07-22T15:37:09;34.40;1.00
21928;DHT22;11128;51.096;17.190;2022-07-22T15:42:11;34.30;1.00
21928;DHT22;11128;51.096;17.190;2022-07-22T15:47:13;33.80;1.00
21928;DHT22;11128;51.096;17.190;2022-07-22T15:52:14;33.80;1.00
21928;DHT22;11128;51.096;17.190;2022-07-22T15:57:16;33.90;1.00
21928;DHT22;11128;51.096;17.190;2022-07-22T16:02:37;33.50;1.00
21928;DHT22;11128;51.096;17.190;2022-07-22T16:07:39;33.30;1.00
21928;DHT22;11128;51.096;17.190;2022-07-22T16:12:44;33.20;1.00
21928;DHT22;11128;51.096;17.190;2022-07-22T16:17:45;33.00;1.00
21928;DHT22;11128;51.096;17.190;2022-07-22T16:22:47;32.80;1.00
21928;DHT22;11128;51.096;17.190;2022-07-22T16:27:49;32.60;1.00
21928;DHT22;11128;51.096;17.190;2022-07-22T16:32:51;32.40;1.00
21928;DHT22;11128;51.096;17.190;2022-07-22T16:37:55;32.30;1.00
21928;DHT22;11128;51.096;17.190;2022-07-22T16:42:57;32.00;1.00
21928;DHT22;11128;51.096;17.190;2022-07-22T16:47:58;31.80;1.00
21928;DHT22;11128;51.096;17.190;2022-07-22T16:53:00;31.50;1.00
21928;DHT22;11128;51.096;17.190;2022-07-22T16:58:01;31.40;1.00
21928;DHT22;11128;51.096;17.190;2022-07-22T17:03:04;31.20;1.00
21928;DHT22;11128;51.096;17.190;2022-07-22T17:08:05;30.90;1.00
21928;DHT22;11128;51.096;17.190;2022-07-22T17:13:07;30.80;1.00
21928;DHT22;11128;51.096;17.190;2022-07-22T17:18:08;30.50;1.00
21928;DHT22;11128;51.096;17.190;2022-07-22T17:23:10;30.30;1.00
21928;DHT22;11128;51.096;17.190;2022-07-22T17:28:12;30.20;1.00
21928;DHT22;11128;51.096;17.190;2022-07-22T17:33:14;30.00;1.00
21928;DHT22;11128;51.096;17.190;2022-07-22T17:38:15;29.80;1.00
21928;DHT22;11128;51.096;17.190;2022-07-22T17:43:18;29.60;1.00
21928;DHT22;11128;51.096;17.190;2022-07-22T17:48:19;29.50;1.00
21928;DHT22;11128;51.096;17.190;2022-07-22T17:53:21;29.30;1.00
21928;DHT22;11128;51.096;17.190;2022-07-22T17:58:23;29.10;1.00
21928;DHT22;11128;51.096;17.190;2022-07-22T18:03:24;28.90;1.00
21928;DHT22;11128;51.096;17.190;2022-07-22T18:08:26;28.70;1.00
21928;DHT22;11128;51.096;17.190;2022-07-22T18:13:28;28.50;1.00
21928;DHT22;11128;51.096;17.190;2022-07-22T18:18:30;28.30;1.00
21928;DHT22;11128;51.096;17.190;2022-07-22T18:23:33;28.10;1.00
21928;DHT22;11128;51.096;17.190;2022-07-22T18:28:36;27.90;1.00
21928;DHT22;11128;51.096;17.190;2022-07-22T18:33:38;27.70;1.00
21928;DHT22;11128;51.096;17.190;2022-07-22T18:38:40;27.50;1.00
21928;DHT22;11128;51.096;17.190;2022-07-22T18:43:41;27.30;1.00
21928;DHT22;11128;51.096;17.190;2022-07-22T18:48:43;27.00;1.00
21928;DHT22;11128;51.096;17.190;2022-07-22T18:53:45;26.80;42.00
21928;DHT22;11128;51.096;17.190;2022-07-22T18:58:46;26.70;99.90
21928;DHT22;11128;51.096;17.190;2022-07-22T19:03:49;26.40;99.90
21928;DHT22;11128;51.096;17.190;2022-07-22T19:08:51;26.20;1.00
21928;DHT22;11128;51.096;17.190;2022-07-22T19:13:54;26.10;1.00
21928;DHT22;11128;51.096;17.190;2022-07-22T19:18:56;25.90;1.00
21928;DHT22;11128;51.096;17.190;2022-07-22T19:23:58;25.70;1.00
21928;DHT22;11128;51.096;17.190;2022-07-22T19:29:00;25.50;1.00
21928;DHT22;11128;51.096;17.190;2022-07-22T19:34:02;25.30;1.00
21928;DHT22;11128;51.096;17.190;2022-07-22T19:39:04;25.20;1.00
21928;DHT22;11128;51.096;17.190;2022-07-22T19:44:07;25.10;1.00
21928;DHT22;11128;51.096;17.190;2022-07-22T19:49:08;24.90;1.00
21928;DHT22;11128;51.096;17.190;2022-07-22T19:54:10;24.80;1.00
21928;DHT22;11128;51.096;17.190;2022-07-22T19:59:12;24.60;1.00
21928;DHT22;11128;51.096;17.190;2022-07-22T20:04:14;24.50;1.00
21928;DHT22;11128;51.096;17.190;2022-07-22T20:09:16;24.40;88.50
21928;DHT22;11128;51.096;17.190;2022-07-22T20:14:18;24.30;99.90
21928;DHT22;11128;51.096;17.190;2022-07-22T20:19:21;24.20;99.90
21928;DHT22;11128;51.096;17.190;2022-07-22T20:24:23;24.10;99.90
21928;DHT22;11128;51.096;17.190;2022-07-22T20:29:24;24.00;99.90
21928;DHT22;11128;51.096;17.190;2022-07-22T20:34:26;23.90;1.00
21928;DHT22;11128;51.096;17.190;2022-07-22T20:39:28;23.70;1.00
21928;DHT22;11128;51.096;17.190;2022-07-22T20:44:30;23.60;1.00
21928;DHT22;11128;51.096;17.190;2022-07-22T20:49:32;23.60;99.90
21928;DHT22;11128;51.096;17.190;2022-07-22T20:54:34;23.50;99.90
21928;DHT22;11128;51.096;17.190;2022-07-22T20:59:37;23.50;1.00
21928;DHT22;11128;51.096;17.190;2022-07-22T21:04:39;23.40;99.90
21928;DHT22;11128;51.096;17.190;2022-07-22T21:09:40;23.20;1.00
21928;DHT22;11128;51.096;17.190;2022-07-22T21:14:42;23.10;1.00
21928;DHT22;11128;51.096;17.190;2022-07-22T21:19:44;23.00;1.00
21928;DHT22;11128;51.096;17.190;2022-07-22T21:24:46;22.90;1.00
21928;DHT22;11128;51.096;17.190;2022-07-22T21:29:49;22.70;1.00
21928;DHT22;11128;51.096;17.190;2022-07-22T21:34:50;22.60;1.00
21928;DHT22;11128;51.096;17.190;2022-07-22T21:39:51;22.60;4.80
21928;DHT22;11128;51.096;17.190;2022-07-22T21:44:53;22.40;1.00
21928;DHT22;11128;51.096;17.190;2022-07-22T21:49:55;22.30;1.00
21928;DHT22;11128;51.096;17.190;2022-07-22T21:54:58;22.10;99.90
21928;DHT22;11128;51.096;17.190;2022-07-22T21:59:59;22.00;1.40
21928;DHT22;11128;51.096;17.190;2022-07-22T22:05:01;21.90;1.00
21928;DHT22;11128;51.096;17.190;2022-07-22T22:10:03;21.80;1.00
21928;DHT22;11128;51.096;17.190;2022-07-22T22:15:05;21.80;1.00
21928;DHT22;11128;51.096;17.190;2022-07-22T22:20:09;21.60;1.00
21928;DHT22;11128;51.096;17.190;2022-07-22T22:25:11;21.40;1.00
21928;DHT22;11128;51.096;17.190;2022-07-22T22:30:15;21.40;99.90
21928;DHT22;11128;51.096;17.190;2022-07-22T22:35:16;21.30;1.00
21928;DHT22;11128;51.096;17.190;2022-07-22T22:40:18;21.20;99.90
21928;DHT22;11128;51.096;17.190;2022-07-22T22:45:19;21.20;1.00
21928;DHT22;11128;51.096;17.190;2022-07-22T22:50:22;21.10;1.00
21928;DHT22;11128;51.096;17.190;2022-07-22T22:55:25;21.10;99.90
21928;DHT22;11128;51.096;17.190;2022-07-22T23:00:28;21.00;1.00
21928;DHT22;11128;51.096;17.190;2022-07-22T23:05:29;20.90;99.90
21928;DHT22;11128;51.096;17.190;2022-07-22T23:10:32;20.80;1.00
21928;DHT22;11128;51.096;17.190;2022-07-22T23:15:34;20.60;1.00
21928;DHT22;11128;51.096;17.190;2022-07-22T23:20:35;20.60;1.00
21928;DHT22;11128;51.096;17.190;2022-07-22T23:25:49;20.40;1.00
21928;DHT22;11128;51.096;17.190;2022-07-22T23:30:51;20.30;99.90
21928;DHT22;11128;51.096;17.190;2022-07-22T23:35:54;20.30;99.90
21928;DHT22;11128;51.096;17.190;2022-07-22T23:40:56;20.20;99.90
21928;DHT22;11128;51.096;17.190;2022-07-22T23:46:03;20.30;1.00
21928;DHT22;11128;51.096;17.190;2022-07-22T23:51:05;20.30;1.00
21928;DHT22;11128;51.096;17.190;2022-07-22T23:56:07;20.20;55.40
